sensor_id;sensor_type;location;lat;lon;timestamp;pressure;altitude;pressure_sealevel;temperature;humidity
44297;BME280;51842;47.450;8.654;2023-02-28T00:01:34;95728.78;;;-2.94;83.79
44297;BME280;51842;47.450;8.654;2023-02-28T00:04:01;95725.09;;;-2.99;83.92
44297;BME280;51842;47.450;8.654;2023-02-28T00:06:28;95717.78;;;-3.04;84.13
44297;BME280;51842;47.450;8.654;2023-02-28T00:08:59;95723.56;;;-2.94;84.05
44297;BME280;51842;47.450;8.654;2023-02-28T00:11:25;95724.03;;;-2.90;83.85
44297;BME280;51842;47.450;8.654;2023-02-28T00:13:51;95722.28;;;-2.98;83.28
44297;BME280;51842;47.450;8.654;2023-02-28T00:16:22;95722.56;;;-2.93;83.93
44297;BME280;51842;47.450;8.654;2023-02-28T00:18:51;95725.44;;;-3.03;83.83
44297;BME280;51842;47.450;8.654;2023-02-28T00:21:20;95721.13;;;-2.95;83.97
44297;BME280;51842;47.450;8.654;2023-02-28T00:23:49;95723.72;;;-2.95;84.17
44297;BME280;51842;47.450;8.654;2023-02-28T00:26:20;95732.66;;;-2.90;84.13
44297;BME280;51842;47.450;8.654;2023-02-28T00:28:48;95726.53;;;-2.97;83.62
44297;BME280;51842;47.450;8.654;2023-02-28T00:31:20;95728.69;;;-3.00;84.00
44297;BME280;51842;47.450;8.654;2023-02-28T00:33:46;95729.31;;;-2.98;83.66
44297;BME280;51842;47.450;8.654;2023-02-28T00:36:18;95722.63;;;-3.01;84.50
44297;BME280;51842;47.450;8.654;2023-02-28T00:38:44;95726.34;;;-2.95;84.38
44297;BME280;51842;47.450;8.654;2023-02-28T00:41:10;95719.88;;;-2.99;84.84
44297;BME280;51842;47.450;8.654;2023-02-28T00:43:48;95734.25;;;-3.04;84.78
44297;BME280;51842;47.450;8.654;2023-02-28T00:46:16;95719.06;;;-3.00;84.42
44297;BME280;51842;47.450;8.654;2023-02-28T00:48:45;95717.16;;;-3.06;84.54
44297;BME280;51842;47.450;8.654;2023-02-28T00:51:19;95722.63;;;-3.01;85.20
44297;BME280;51842;47.450;8.654;2023-02-28T00:53:48;95722.81;;;-3.03;85.05
44297;BME280;51842;47.450;8.654;2023-02-28T00:56:20;95722.38;;;-3.06;84.40
44297;BME280;51842;47.450;8.654;2023-02-28T00:58:45;95724.63;;;-3.03;84.89
44297;BME280;51842;47.450;8.654;2023-02-28T01:01:17;95718.59;;;-3.04;84.87
44297;BME280;51842;47.450;8.654;2023-02-28T01:03:43;95719.22;;;-3.02;84.91
44297;BME280;51842;47.450;8.654;2023-02-28T01:06:09;95728.84;;;-3.02;84.43
44297;BME280;51842;47.450;8.654;2023-02-28T01:08:35;95728.38;;;-3.06;84.47
44297;BME280;51842;47.450;8.654;2023-02-28T01:11:10;95726.25;;;-3.02;84.78
44297;BME280;51842;47.450;8.654;2023-02-28T01:13:37;95724.53;;;-2.95;84.74
44297;BME280;51842;47.450;8.654;2023-02-28T01:16:03;95727.50;;;-2.98;84.95
44297;BME280;51842;47.450;8.654;2023-02-28T01:18:32;95726.34;;;-2.95;84.47
44297;BME280;51842;47.450;8.654;2023-02-28T01:21:15;95726.53;;;-2.97;84.48
44297;BME280;51842;47.450;8.654;2023-02-28T01:23:42;95729.59;;;-2.93;84.86
44297;BME280;51842;47.450;8.654;2023-02-28T01:26:25;95729.50;;;-3.00;84.56
44297;BME280;51842;47.450;8.654;2023-02-28T01:28:53;95727.69;;;-2.99;85.60
44297;BME280;51842;47.450;8.654;2023-02-28T01:31:21;95728.19;;;-3.04;84.74
44297;BME280;51842;47.450;8.654;2023-02-28T01:33:47;95729.59;;;-2.93;84.92
44297;BME280;51842;47.450;8.654;2023-02-28T01:36:25;95729.75;;;-2.95;84.62
44297;BME280;51842;47.450;8.654;2023-02-28T01:38:51;95727.03;;;-3.02;84.81
44297;BME280;51842;47.450;8.654;2023-02-28T01:41:29;95724.88;;;-2.98;85.20
44297;BME280;51842;47.450;8.654;2023-02-28T01:44:54;95726.19;;;-2.94;84.91
44297;BME280;51842;47.450;8.654;2023-02-28T01:46:53;95718.53;;;-2.95;84.75
44297;BME280;51842;47.450;8.654;2023-02-28T01:49:19;95726.53;;;-2.97;85.05
44297;BME280;51842;47.450;8.654;2023-02-28T01:51:56;95720.66;;;-2.99;84.84
44297;BME280;51842;47.450;8.654;2023-02-28T01:54:40;95725.88;;;-2.99;85.10
44297;BME280;51842;47.450;8.654;2023-02-28T01:57:23;95725.38;;;-2.94;85.25
44297;BME280;51842;47.450;8.654;2023-02-28T02:00:05;95722.94;;;-2.96;84.68
44297;BME280;51842;47.450;8.654;2023-02-28T02:02:34;95727.97;;;-2.94;84.97
44297;BME280;51842;47.450;8.654;2023-02-28T02:05:12;95720.50;;;-2.97;84.82
44297;BME280;51842;47.450;8.654;2023-02-28T02:07:45;95718.59;;;-3.04;85.24
44297;BME280;51842;47.450;8.654;2023-02-28T02:10:28;95719.50;;;-2.96;84.92
44297;BME280;51842;47.450;8.654;2023-02-28T02:36:03;95688.88;;;-2.94;85.46
44297;BME280;51842;47.450;8.654;2023-02-28T02:41:53;95689.47;;;-3.07;85.25
44297;BME280;51842;47.450;8.654;2023-02-28T02:44:31;95690.75;;;-3.03;84.97
44297;BME280;51842;47.450;8.654;2023-02-28T02:47:18;95689.00;;;-3.11;84.31
44297;BME280;51842;47.450;8.654;2023-02-28T02:49:53;95691.09;;;-3.06;85.20
44297;BME280;51842;47.450;8.654;2023-02-28T02:52:36;95692.53;;;-3.04;85.04
44297;BME280;51842;47.450;8.654;2023-02-28T02:55:09;95682.63;;;-3.08;85.17
44297;BME280;51842;47.450;8.654;2023-02-28T02:57:59;95686.59;;;-3.12;84.63
44297;BME280;51842;47.450;8.654;2023-02-28T03:00:41;95687.03;;;-3.09;84.85
44297;BME280;51842;47.450;8.654;2023-02-28T03:03:12;95683.97;;;-3.12;85.12
44297;BME280;51842;47.450;8.654;2023-02-28T03:05:51;95689.09;;;-3.04;84.97
44297;BME280;51842;47.450;8.654;2023-02-28T03:08:17;95686.84;;;-3.07;84.93
44297;BME280;51842;47.450;8.654;2023-02-28T03:11:03;95686.59;;;-3.12;85.08
44297;BME280;51842;47.450;8.654;2023-02-28T03:23:34;95676.63;;;-3.09;84.58
44297;BME280;51842;47.450;8.654;2023-02-28T03:26:21;95683.09;;;-3.05;84.65
44297;BME280;51842;47.450;8.654;2023-02-28T03:29:28;95680.47;;;-3.05;84.61
44297;BME280;51842;47.450;8.654;2023-02-28T03:35:16;95686.50;;;-3.04;84.84
44297;BME280;51842;47.450;8.654;2023-02-28T03:37:55;95684.88;;;-3.05;85.12
44297;BME280;51842;47.450;8.654;2023-02-28T03:40:32;95688.50;;;-3.06;85.15
44297;BME280;51842;47.450;8.654;2023-02-28T03:43:18;95692.97;;;-3.15;84.92
44297;BME280;51842;47.450;8.654;2023-02-28T03:45:52;95698.56;;;-3.03;85.49
44297;BME280;51842;47.450;8.654;2023-02-28T03:48:55;95696.56;;;-3.01;85.03
44297;BME280;51842;47.450;8.654;2023-02-28T03:51:28;95703.59;;;-3.02;85.06
44297;BME280;51842;47.450;8.654;2023-02-28T03:54:09;95699.19;;;-3.01;84.77
44297;BME280;51842;47.450;8.654;2023-02-28T03:56:59;95700.81;;;-3.00;85.25
44297;BME280;51842;47.450;8.654;2023-02-28T03:59:57;95691.84;;;-2.97;84.83
44297;BME280;51842;47.450;8.654;2023-02-28T04:02:25;95691.34;;;-3.01;85.00
44297;BME280;51842;47.450;8.654;2023-02-28T04:05:00;95697.50;;;-2.94;84.63
44297;BME280;51842;47.450;8.654;2023-02-28T04:07:33;95690.84;;;-2.96;84.63
44297;BME280;51842;47.450;8.654;2023-02-28T04:10:04;95693.25;;;-2.95;84.89
44297;BME280;51842;47.450;8.654;2023-02-28T04:12:30;95701.34;;;-3.05;84.57
44297;BME280;51842;47.450;8.654;2023-02-28T04:14:59;95701.63;;;-2.99;85.02
44297;BME280;51842;47.450;8.654;2023-02-28T04:17:27;95703.41;;;-3.00;85.01
44297;BME280;51842;47.450;8.654;2023-02-28T04:19:53;95710.16;;;-3.06;83.55
44297;BME280;51842;47.450;8.654;2023-02-28T04:22:22;95707.25;;;-3.11;83.93
44297;BME280;51842;47.450;8.654;2023-02-28T04:24:51;95709.84;;;-3.11;84.30
44297;BME280;51842;47.450;8.654;2023-02-28T04:27:19;95715.59;;;-3.15;85.03
44297;BME280;51842;47.450;8.654;2023-02-28T04:29:48;95722.88;;;-3.11;84.87
44297;BME280;51842;47.450;8.654;2023-02-28T04:32:14;95722.72;;;-3.09;84.50
44297;BME280;51842;47.450;8.654;2023-02-28T04:34:39;95714.91;;;-3.09;85.09
44297;BME280;51842;47.450;8.654;2023-02-28T04:37:06;95717.41;;;-3.16;84.28
44297;BME280;51842;47.450;8.654;2023-02-28T04:39:36;95720.81;;;-3.15;84.07
44297;BME280;51842;47.450;8.654;2023-02-28T04:42:12;95716.94;;;-3.19;84.52
44297;BME280;51842;47.450;8.654;2023-02-28T04:44:47;95712.09;;;-3.22;84.26
44297;BME280;51842;47.450;8.654;2023-02-28T04:47:16;95721.53;;;-3.21;84.46
44297;BME280;51842;47.450;8.654;2023-02-28T04:49:42;95725.56;;;-3.19;84.80
44297;BME280;51842;47.450;8.654;2023-02-28T04:52:14;95714.91;;;-3.09;84.49
44297;BME280;51842;47.450;8.654;2023-02-28T04:54:52;95724.78;;;-3.19;84.29
44297;BME280;51842;47.450;8.654;2023-02-28T04:57:17;95710.41;;;-3.15;84.74
44297;BME280;51842;47.450;8.654;2023-02-28T04:59:49;95727.47;;;-3.13;84.41
44297;BME280;51842;47.450;8.654;2023-02-28T05:02:15;95727.94;;;-3.09;84.73
44297;BME280;51842;47.450;8.654;2023-02-28T05:04:41;95728.09;;;-3.11;84.83
44297;BME280;51842;47.450;8.654;2023-02-28T05:07:10;95734.94;;;-3.10;84.48
44297;BME280;51842;47.450;8.654;2023-02-28T05:09:35;95726.47;;;-3.12;84.49
44297;BME280;51842;47.450;8.654;2023-02-28T05:12:01;95724.41;;;-3.16;84.55
44297;BME280;51842;47.450;8.654;2023-02-28T05:14:27;95734.16;;;-3.10;84.49
44297;BME280;51842;47.450;8.654;2023-02-28T05:16:56;95731.59;;;-3.18;84.30
44297;BME280;51842;47.450;8.654;2023-02-28T05:19:25;95729.75;;;-3.10;84.30
44297;BME280;51842;47.450;8.654;2023-02-28T05:21:54;95740.66;;;-3.14;84.36
44297;BME280;51842;47.450;8.654;2023-02-28T05:24:21;95738.63;;;-3.04;84.57
44297;BME280;51842;47.450;8.654;2023-02-28T05:26:54;95747.44;;;-3.05;84.09
44297;BME280;51842;47.450;8.654;2023-02-28T05:29:23;95744.38;;;-3.09;84.17
44297;BME280;51842;47.450;8.654;2023-02-28T05:31:52;95747.09;;;-3.02;83.98
44297;BME280;51842;47.450;8.654;2023-02-28T05:34:21;95746.97;;;-3.09;84.52
44297;BME280;51842;47.450;8.654;2023-02-28T05:36:46;95742.78;;;-3.10;84.48
44297;BME280;51842;47.450;8.654;2023-02-28T05:39:12;95739.72;;;-3.13;84.26
44297;BME280;51842;47.450;8.654;2023-02-28T05:41:43;95736.16;;;-3.20;84.31
44297;BME280;51842;47.450;8.654;2023-02-28T05:44:12;95740.16;;;-3.10;84.17
44297;BME280;51842;47.450;8.654;2023-02-28T05:46:38;95745.44;;;-3.18;84.50
44297;BME280;51842;47.450;8.654;2023-02-28T05:49:04;95739.56;;;-3.20;84.43
44297;BME280;51842;47.450;8.654;2023-02-28T05:51:33;95752.66;;;-3.05;84.33
44297;BME280;51842;47.450;8.654;2023-02-28T05:54:01;95750.84;;;-3.05;84.50
44297;BME280;51842;47.450;8.654;2023-02-28T05:56:29;95750.94;;;-3.13;84.48
44297;BME280;51842;47.450;8.654;2023-02-28T05:59:09;95749.47;;;-3.15;84.13
44297;BME280;51842;47.450;8.654;2023-02-28T06:01:47;95756.16;;;-3.13;84.21
44297;BME280;51842;47.450;8.654;2023-02-28T06:04:20;95760.94;;;-3.02;84.57
44297;BME280;51842;47.450;8.654;2023-02-28T06:06:50;95759.13;;;-3.01;83.77
44297;BME280;51842;47.450;8.654;2023-02-28T06:09:18;95759.09;;;-3.16;84.07
44297;BME280;51842;47.450;8.654;2023-02-28T06:11:47;95756.25;;;-3.06;83.90
44297;BME280;51842;47.450;8.654;2023-02-28T06:14:20;95745.53;;;-3.11;83.70
44297;BME280;51842;47.450;8.654;2023-02-28T06:16:47;95758.22;;;-3.08;84.33
44297;BME280;51842;47.450;8.654;2023-02-28T06:19:16;95754.00;;;-3.09;83.47
44297;BME280;51842;47.450;8.654;2023-02-28T06:21:43;95755.50;;;-3.15;83.91
44297;BME280;51842;47.450;8.654;2023-02-28T06:24:15;95762.31;;;-3.14;84.10
44297;BME280;51842;47.450;8.654;2023-02-28T06:26:40;95770.34;;;-3.15;83.89
44297;BME280;51842;47.450;8.654;2023-02-28T06:29:06;95764.47;;;-3.17;83.02
44297;BME280;51842;47.450;8.654;2023-02-28T06:31:33;95770.63;;;-3.10;83.93
44297;BME280;51842;47.450;8.654;2023-02-28T06:33:58;95771.50;;;-3.18;83.12
44297;BME280;51842;47.450;8.654;2023-02-28T06:36:24;95776.34;;;-3.15;83.01
44297;BME280;51842;47.450;8.654;2023-02-28T06:38:50;95782.31;;;-3.06;83.07
44297;BME280;51842;47.450;8.654;2023-02-28T06:41:25;95790.94;;;-3.06;83.79
44297;BME280;51842;47.450;8.654;2023-02-28T06:43:53;95794.53;;;-3.07;83.57
44297;BME280;51842;47.450;8.654;2023-02-28T06:46:19;95781.75;;;-3.16;83.63
44297;BME280;51842;47.450;8.654;2023-02-28T06:48:48;95785.16;;;-3.16;82.62
44297;BME280;51842;47.450;8.654;2023-02-28T06:51:20;95782.47;;;-3.08;83.16
44297;BME280;51842;47.450;8.654;2023-02-28T06:53:48;95791.94;;;-3.07;83.44
44297;BME280;51842;47.450;8.654;2023-02-28T06:56:17;95798.47;;;-3.11;82.15
44297;BME280;51842;47.450;8.654;2023-02-28T06:58:48;95794.81;;;-3.02;83.17
44297;BME280;51842;47.450;8.654;2023-02-28T07:01:15;95795.91;;;-2.96;83.00
44297;BME280;51842;47.450;8.654;2023-02-28T07:03:42;95795.28;;;-2.98;83.29
44297;BME280;51842;47.450;8.654;2023-02-28T07:06:08;95799.75;;;-3.07;82.86
44297;BME280;51842;47.450;8.654;2023-02-28T07:08:35;95800.38;;;-3.05;83.26
44297;BME280;51842;47.450;8.654;2023-02-28T07:11:02;95805.06;;;-3.00;83.41
44297;BME280;51842;47.450;8.654;2023-02-28T07:13:29;95807.69;;;-3.00;83.14
44297;BME280;51842;47.450;8.654;2023-02-28T07:16:09;95805.44;;;-3.03;83.24
44297;BME280;51842;47.450;8.654;2023-02-28T07:18:37;95808.03;;;-3.03;82.49
44297;BME280;51842;47.450;8.654;2023-02-28T07:21:07;95812.44;;;-3.04;82.65
44297;BME280;51842;47.450;8.654;2023-02-28T07:23:35;95812.44;;;-3.04;82.23
44297;BME280;51842;47.450;8.654;2023-02-28T07:26:05;95809.34;;;-3.07;82.95
44297;BME280;51842;47.450;8.654;2023-02-28T07:28:31;95808.50;;;-2.99;83.04
44297;BME280;51842;47.450;8.654;2023-02-28T07:31:08;95815.97;;;-2.96;83.25
44297;BME280;51842;47.450;8.654;2023-02-28T07:33:36;95817.22;;;-2.92;83.02
44297;BME280;51842;47.450;8.654;2023-02-28T07:36:17;95813.31;;;-2.88;82.89
44297;BME280;51842;47.450;8.654;2023-02-28T07:38:48;95815.25;;;-2.90;83.05
44297;BME280;51842;47.450;8.654;2023-02-28T07:41:21;95816.94;;;-2.74;82.44
44297;BME280;51842;47.450;8.654;2023-02-28T07:43:52;95815.84;;;-2.80;82.32
44297;BME280;51842;47.450;8.654;2023-02-28T07:46:18;95821.41;;;-2.83;82.59
44297;BME280;51842;47.450;8.654;2023-02-28T07:48:52;95814.00;;;-2.94;82.41
44297;BME280;51842;47.450;8.654;2023-02-28T07:51:20;95823.25;;;-2.92;81.82
44297;BME280;51842;47.450;8.654;2023-02-28T07:53:46;95824.66;;;-2.81;83.18
44297;BME280;51842;47.450;8.654;2023-02-28T07:56:12;95824.19;;;-2.85;82.22
44297;BME280;51842;47.450;8.654;2023-02-28T07:58:38;95823.53;;;-2.87;82.21
44297;BME280;51842;47.450;8.654;2023-02-28T08:01:11;95830.47;;;-2.79;81.71
44297;BME280;51842;47.450;8.654;2023-02-28T08:03:41;95837.00;;;-2.75;81.52
44297;BME280;51842;47.450;8.654;2023-02-28T08:06:23;95838.19;;;-2.63;82.46
44297;BME280;51842;47.450;8.654;2023-02-28T08:08:50;95836.50;;;-2.56;82.07
44297;BME280;51842;47.450;8.654;2023-02-28T08:11:18;95839.91;;;-2.55;82.11
44297;BME280;51842;47.450;8.654;2023-02-28T08:13:45;95839.41;;;-2.73;81.63
44297;BME280;51842;47.450;8.654;2023-02-28T08:16:15;95837.19;;;-2.62;81.81
44297;BME280;51842;47.450;8.654;2023-02-28T08:18:43;95839.50;;;-2.44;82.01
44297;BME280;51842;47.450;8.654;2023-02-28T08:21:11;95844.63;;;-2.50;80.38
44297;BME280;51842;47.450;8.654;2023-02-28T08:23:37;95852.31;;;-2.57;80.30
44297;BME280;51842;47.450;8.654;2023-02-28T08:26:05;95839.22;;;-2.49;81.80
44297;BME280;51842;47.450;8.654;2023-02-28T08:28:32;95846.41;;;-2.36;81.03
44297;BME280;51842;47.450;8.654;2023-02-28T08:30:58;95843.09;;;-2.30;80.51
44297;BME280;51842;47.450;8.654;2023-02-28T08:33:28;95845.06;;;-2.32;80.13
44297;BME280;51842;47.450;8.654;2023-02-28T08:35:55;95841.09;;;-2.43;80.22
44297;BME280;51842;47.450;8.654;2023-02-28T08:38:23;95842.63;;;-2.48;81.02
44297;BME280;51842;47.450;8.654;2023-02-28T08:40:50;95845.66;;;-2.22;80.71
44297;BME280;51842;47.450;8.654;2023-02-28T08:43:22;95833.31;;;-2.28;80.24
44297;BME280;51842;47.450;8.654;2023-02-28T08:45:52;95845.31;;;-2.42;80.15
44297;BME280;51842;47.450;8.654;2023-02-28T08:48:18;95841.75;;;-2.26;79.88
44297;BME280;51842;47.450;8.654;2023-02-28T08:50:54;95836.88;;;-2.29;80.07
44297;BME280;51842;47.450;8.654;2023-02-28T08:53:20;95841.94;;;-2.27;80.35
44297;BME280;51842;47.450;8.654;2023-02-28T08:55:59;95841.13;;;-2.28;80.36
44297;BME280;51842;47.450;8.654;2023-02-28T08:58:26;95843.59;;;-2.12;79.34
44297;BME280;51842;47.450;8.654;2023-02-28T09:00:58;95841.97;;;-1.98;78.77
44297;BME280;51842;47.450;8.654;2023-02-28T09:03:24;95851.34;;;-2.03;78.61
44297;BME280;51842;47.450;8.654;2023-02-28T09:06:00;95854.91;;;-2.04;78.55
44297;BME280;51842;47.450;8.654;2023-02-28T09:08:29;95854.56;;;-2.01;78.95
44297;BME280;51842;47.450;8.654;2023-02-28T09:10:56;95867.72;;;-2.10;77.86
44297;BME280;51842;47.450;8.654;2023-02-28T09:13:26;95868.78;;;-2.19;79.25
44297;BME280;51842;47.450;8.654;2023-02-28T09:15:53;95875.88;;;-2.27;79.38
44297;BME280;51842;47.450;8.654;2023-02-28T09:18:19;95875.19;;;-2.06;78.21
44297;BME280;51842;47.450;8.654;2023-02-28T09:20:46;95887.31;;;-2.14;78.46
44297;BME280;51842;47.450;8.654;2023-02-28T09:23:13;95881.47;;;-2.16;77.44
44297;BME280;51842;47.450;8.654;2023-02-28T09:25:52;95879.13;;;-2.11;78.02
44297;BME280;51842;47.450;8.654;2023-02-28T09:28:19;95888.50;;;-2.16;77.47
44297;BME280;51842;47.450;8.654;2023-02-28T09:30:54;95883.09;;;-2.15;76.46
44297;BME280;51842;47.450;8.654;2023-02-28T09:33:23;95871.81;;;-2.30;77.41
44297;BME280;51842;47.450;8.654;2023-02-28T09:36:00;95874.94;;;-1.97;77.57
44297;BME280;51842;47.450;8.654;2023-02-28T09:38:27;95868.19;;;-1.91;77.91
44297;BME280;51842;47.450;8.654;2023-02-28T09:41:08;95873.38;;;-1.76;76.83
44297;BME280;51842;47.450;8.654;2023-02-28T09:43:46;95878.53;;;-1.83;77.48
44297;BME280;51842;47.450;8.654;2023-02-28T09:46:41;95883.38;;;-1.95;75.90
44297;BME280;51842;47.450;8.654;2023-02-28T09:49:21;95889.59;;;-1.96;77.27
44297;BME280;51842;47.450;8.654;2023-02-28T09:52:12;95898.06;;;-1.79;77.38
44297;BME280;51842;47.450;8.654;2023-02-28T09:54:48;95898.16;;;-1.87;76.86
44297;BME280;51842;47.450;8.654;2023-02-28T09:57:40;95905.34;;;-1.89;77.49
44297;BME280;51842;47.450;8.654;2023-02-28T10:00:35;95902.09;;;-2.06;77.28
44297;BME280;51842;47.450;8.654;2023-02-28T10:03:35;95905.63;;;-1.99;77.36
44297;BME280;51842;47.450;8.654;2023-02-28T10:06:19;95897.91;;;-1.77;78.28
44297;BME280;51842;47.450;8.654;2023-02-28T10:09:22;95899.13;;;-1.88;76.92
44297;BME280;51842;47.450;8.654;2023-02-28T10:12:04;95890.31;;;-1.87;77.05
44297;BME280;51842;47.450;8.654;2023-02-28T10:14:36;95903.56;;;-1.59;75.82
44297;BME280;51842;47.450;8.654;2023-02-28T10:17:15;95904.81;;;-1.55;76.86
44297;BME280;51842;47.450;8.654;2023-02-28T10:20:05;95908.16;;;-1.46;74.71
44297;BME280;51842;47.450;8.654;2023-02-28T10:22:57;95914.09;;;-1.67;74.82
44297;BME280;51842;47.450;8.654;2023-02-28T10:25:30;95924.31;;;-1.72;75.81
44297;BME280;51842;47.450;8.654;2023-02-28T10:28:12;95933.84;;;-1.50;75.21
44297;BME280;51842;47.450;8.654;2023-02-28T10:30:52;95924.81;;;-1.77;75.01
44297;BME280;51842;47.450;8.654;2023-02-28T10:33:51;95924.75;;;-1.69;75.00
44297;BME280;51842;47.450;8.654;2023-02-28T10:36:22;95926.91;;;-1.57;75.33
44297;BME280;51842;47.450;8.654;2023-02-28T10:38:55;95928.06;;;-1.45;75.62
44297;BME280;51842;47.450;8.654;2023-02-28T10:41:32;95934.81;;;-1.36;74.12
44297;BME280;51842;47.450;8.654;2023-02-28T10:44:35;95924.47;;;-1.44;74.13
44297;BME280;51842;47.450;8.654;2023-02-28T10:47:17;95920.34;;;-1.53;75.27
44297;BME280;51842;47.450;8.654;2023-02-28T10:49:50;95921.41;;;-1.48;75.70
44297;BME280;51842;47.450;8.654;2023-02-28T10:52:39;95928.97;;;-1.38;75.24
44297;BME280;51842;47.450;8.654;2023-02-28T10:55:25;95924.38;;;-1.36;74.33
44297;BME280;51842;47.450;8.654;2023-02-28T10:57:52;95931.03;;;-1.48;73.98
44297;BME280;51842;47.450;8.654;2023-02-28T11:00:24;95929.34;;;-1.71;76.39
44297;BME280;51842;47.450;8.654;2023-02-28T11:02:53;95924.47;;;-1.44;75.90
44297;BME280;51842;47.450;8.654;2023-02-28T11:05:35;95924.56;;;-1.37;75.36
44297;BME280;51842;47.450;8.654;2023-02-28T11:08:19;95921.03;;;-1.30;74.83
44297;BME280;51842;47.450;8.654;2023-02-28T11:10:57;95924.59;;;-1.16;74.52
44297;BME280;51842;47.450;8.654;2023-02-28T11:13:36;95925.00;;;-1.34;74.91
44297;BME280;51842;47.450;8.654;2023-02-28T11:16:11;95917.97;;;-1.48;76.15
44297;BME280;51842;47.450;8.654;2023-02-28T11:18:54;95919.50;;;-1.39;76.47
44297;BME280;51842;47.450;8.654;2023-02-28T11:21:34;95925.44;;;-1.45;75.72
44297;BME280;51842;47.450;8.654;2023-02-28T11:26:57;95928.25;;;-1.61;77.27
44297;BME280;51842;47.450;8.654;2023-02-28T11:29:31;95933.66;;;-1.48;75.88
44297;BME280;51842;47.450;8.654;2023-02-28T11:32:39;95928.72;;;-1.43;76.54
44297;BME280;51842;47.450;8.654;2023-02-28T11:35:35;95937.44;;;-1.21;76.54
44297;BME280;51842;47.450;8.654;2023-02-28T11:38:12;95922.13;;;-1.39;76.78
44297;BME280;51842;47.450;8.654;2023-02-28T11:53:05;95926.56;;;-1.69;76.59
44297;BME280;51842;47.450;8.654;2023-02-28T11:59:39;95929.38;;;-1.20;75.46
44297;BME280;51842;47.450;8.654;2023-02-28T12:12:02;95922.69;;;-1.44;75.36
44297;BME280;51842;47.450;8.654;2023-02-28T12:19:01;95919.97;;;-1.50;75.59
44297;BME280;51842;47.450;8.654;2023-02-28T12:27:26;95922.69;;;-0.93;74.59
44297;BME280;51842;47.450;8.654;2023-02-28T12:32:45;95918.56;;;-1.02;75.04
44297;BME280;51842;47.450;8.654;2023-02-28T12:39:34;95918.69;;;-1.25;75.00
44297;BME280;51842;47.450;8.654;2023-02-28T12:42:11;95918.75;;;-1.03;74.12
44297;BME280;51842;47.450;8.654;2023-02-28T12:44:49;95917.63;;;-0.94;74.20
44297;BME280;51842;47.450;8.654;2023-02-28T12:47:29;95923.72;;;-1.23;74.50
44297;BME280;51842;47.450;8.654;2023-02-28T12:50:11;95918.91;;;-1.05;76.25
44297;BME280;51842;47.450;8.654;2023-02-28T12:53:21;95923.25;;;-0.97;74.26
44297;BME280;51842;47.450;8.654;2023-02-28T12:59:03;95915.59;;;-1.13;74.62
44297;BME280;51842;47.450;8.654;2023-02-28T13:06:53;95928.31;;;-1.10;75.49
44297;BME280;51842;47.450;8.654;2023-02-28T13:09:16;95921.63;;;-1.13;74.77
44297;BME280;51842;47.450;8.654;2023-02-28T13:11:50;95915.88;;;-1.23;75.29
44297;BME280;51842;47.450;8.654;2023-02-28T13:14:43;95911.00;;;-1.26;74.35
44297;BME280;51842;47.450;8.654;2023-02-28T13:19:58;95916.22;;;-1.11;74.31
44297;BME280;51842;47.450;8.654;2023-02-28T13:22:48;95912.25;;;-1.07;74.15
44297;BME280;51842;47.450;8.654;2023-02-28T13:31:15;95913.31;;;-1.02;74.16
44297;BME280;51842;47.450;8.654;2023-02-28T13:34:15;95916.66;;;-1.08;73.42
44297;BME280;51842;47.450;8.654;2023-02-28T13:36:41;95917.75;;;-1.17;73.91
44297;BME280;51842;47.450;8.654;2023-02-28T13:39:53;95915.50;;;-1.05;74.99
44297;BME280;51842;47.450;8.654;2023-02-28T13:47:55;95910.59;;;-0.94;74.20
44297;BME280;51842;47.450;8.654;2023-02-28T13:53:54;95927.03;;;-1.00;73.90
44297;BME280;51842;47.450;8.654;2023-02-28T13:57:08;95923.66;;;-1.30;75.53
44297;BME280;51842;47.450;8.654;2023-02-28T14:06:37;95916.06;;;-0.88;73.54
44297;BME280;51842;47.450;8.654;2023-02-28T14:09:31;95912.91;;;-0.84;73.75
44297;BME280;51842;47.450;8.654;2023-02-28T14:12:54;95908.06;;;-0.87;75.08
44297;BME280;51842;47.450;8.654;2023-02-28T14:18:33;95922.09;;;-1.09;75.24
44297;BME280;51842;47.450;8.654;2023-02-28T14:21:34;95921.22;;;-1.31;75.58
44297;BME280;51842;47.450;8.654;2023-02-28T14:31:15;95925.44;;;-1.15;76.46
44297;BME280;51842;47.450;8.654;2023-02-28T14:34:23;95924.81;;;-1.32;75.90
44297;BME280;51842;47.450;8.654;2023-02-28T14:36:53;95924.25;;;-1.13;75.59
44297;BME280;51842;47.450;8.654;2023-02-28T14:39:27;95933.72;;;-0.97;74.76
44297;BME280;51842;47.450;8.654;2023-02-28T14:41:57;95930.53;;;-0.93;74.07
44297;BME280;51842;47.450;8.654;2023-02-28T14:44:30;95938.66;;;-1.02;74.39
44297;BME280;51842;47.450;8.654;2023-02-28T14:47:02;95924.50;;;-1.08;74.68
44297;BME280;51842;47.450;8.654;2023-02-28T14:49:43;95938.38;;;-0.93;74.58
44297;BME280;51842;47.450;8.654;2023-02-28T14:52:32;95938.31;;;-0.99;73.98
44297;BME280;51842;47.450;8.654;2023-02-28T14:55:14;95949.56;;;-0.99;74.99
44297;BME280;51842;47.450;8.654;2023-02-28T14:58:28;95943.81;;;-1.09;74.85
44297;BME280;51842;47.450;8.654;2023-02-28T15:01:01;95948.75;;;-0.99;75.49
44297;BME280;51842;47.450;8.654;2023-02-28T15:03:39;95941.28;;;-1.02;75.49
44297;BME280;51842;47.450;8.654;2023-02-28T15:06:16;95945.69;;;-1.03;75.09
44297;BME280;51842;47.450;8.654;2023-02-28T15:08:44;95949.13;;;-1.02;74.74
44297;BME280;51842;47.450;8.654;2023-02-28T15:11:19;95950.75;;;-1.01;75.38
44297;BME280;51842;47.450;8.654;2023-02-28T15:13:54;95952.97;;;-0.83;75.00
44297;BME280;51842;47.450;8.654;2023-02-28T15:16:44;95948.94;;;-1.01;75.20
44297;BME280;51842;47.450;8.654;2023-02-28T15:19:25;95955.44;;;-0.97;75.63
44297;BME280;51842;47.450;8.654;2023-02-28T15:22:14;95960.44;;;-0.80;75.56
44297;BME280;51842;47.450;8.654;2023-02-28T15:24:53;95957.56;;;-0.85;74.78
44297;BME280;51842;47.450;8.654;2023-02-28T15:27:27;95954.53;;;-1.04;75.85
44297;BME280;51842;47.450;8.654;2023-02-28T15:30:13;95945.94;;;-0.98;76.47
44297;BME280;51842;47.450;8.654;2023-02-28T15:32:43;95956.97;;;-1.17;76.15
44297;BME280;51842;47.450;8.654;2023-02-28T15:35:29;95954.19;;;-1.15;77.28
44297;BME280;51842;47.450;8.654;2023-02-28T15:38:02;95956.97;;;-1.17;76.55
44297;BME280;51842;47.450;8.654;2023-02-28T15:40:58;95968.28;;;-1.31;76.87
44297;BME280;51842;47.450;8.654;2023-02-28T15:43:37;95963.94;;;-1.24;76.87
44297;BME280;51842;47.450;8.654;2023-02-28T15:46:09;95968.81;;;-1.21;77.97
44297;BME280;51842;47.450;8.654;2023-02-28T15:48:53;95967.72;;;-1.27;76.88